Time,TemperatureF,DewpointF,PressureIn,WindDirection,WindDirectionDegrees,WindSpeedMPH,WindSpeedGustMPH,Humidity,HourlyPrecipIn,Conditions,Clouds,dailyrainin,SoftwareType,DateUTC
2013-09-29 00:02:00,58.1,53.0,30.12,North,0,0.0,2.0,83,0.00,,CLR,0.00,VWS V14.00,2013-09-29 04:02:00,
2013-09-29 00:17:00,58.3,53.2,30.11,NE,51,0.0,3.0,83,0.00,,CLR,0.00,VWS V14.00,2013-09-29 04:17:00,
2013-09-29 00:32:00,58.1,53.0,30.11,NE,56,0.0,3.0,83,0.00,,CLR,0.00,VWS V14.00,2013-09-29 04:32:00,
2013-09-29 00:47:00,57.8,53.0,30.11,NE,54,0.0,1.0,84,0.00,,CLR,0.00,VWS V14.00,2013-09-29 04:47:00,
2013-09-29 01:02:00,57.2,52.7,30.11,NE,54,0.0,0.0,85,0.00,,BKN035,0.00,VWS V14.00,2013-09-29 05:02:00,
2013-09-29 01:17:00,56.7,52.6,30.11,NE,54,0.0,0.0,86,0.00,,BKN035,0.00,VWS V14.00,2013-09-29 05:17:00,
2013-09-29 01:32:00,56.3,52.5,30.10,NE,55,0.0,0.0,87,0.00,,BKN035,0.00,VWS V14.00,2013-09-29 05:32:00,
2013-09-29 01:47:00,56.0,52.5,30.10,NE,54,0.0,0.0,88,0.00,,BKN035,0.00,VWS V14.00,2013-09-29 05:47:00,
2013-09-29 02:02:00,55.6,52.4,30.10,NE,54,0.0,0.0,89,0.00,,OVC046,0.00,VWS V14.00,2013-09-29 06:02:00,
2013-09-29 02:17:00,55.1,51.9,30.11,NE,54,0.0,0.0,89,0.00,,OVC046,0.00,VWS V14.00,2013-09-29 06:17:00,
2013-09-29 02:32:00,54.5,51.6,30.10,NE,54,0.0,0.0,90,0.00,,OVC046,0.00,VWS V14.00,2013-09-29 06:32:00,
2013-09-29 02:47:00,54.5,51.6,30.10,NE,54,0.0,0.0,90,0.00,,OVC046,0.00,VWS V14.00,2013-09-29 06:47:00,
2013-09-29 03:02:00,54.4,51.8,30.10,NE,54,0.0,0.0,91,0.00,,FEW046,0.00,VWS V14.00,2013-09-29 07:02:00,
2013-09-29 03:17:00,54.4,51.8,30.10,NE,54,0.0,0.0,91,0.00,,FEW046,0.00,VWS V14.00,2013-09-29 07:17:00,
2013-09-29 03:32:00,54.2,51.6,30.10,NE,54,0.0,0.0,91,0.00,,FEW046,0.00,VWS V14.00,2013-09-29 07:32:00,
2013-09-29 03:47:00,54.2,51.9,30.10,NE,54,0.0,0.0,92,0.00,,FEW046,0.00,VWS V14.00,2013-09-29 07:47:00,
2013-09-29 04:02:00,54.4,52.1,30.09,NE,54,0.0,0.0,92,0.00,,FEW046,0.00,VWS V14.00,2013-09-29 08:02:00,
2013-09-29 04:17:00,55.3,53.3,30.09,NE,54,0.0,0.0,93,0.00,,FEW046,0.00,VWS V14.00,2013-09-29 08:17:00,
2013-09-29 04:32:00,55.4,53.4,30.09,NE,54,0.0,0.0,93,0.00,,FEW046,0.00,VWS V14.00,2013-09-29 08:32:00,
2013-09-29 04:47:00,55.7,53.7,30.09,NE,54,0.0,0.0,93,0.00,,FEW046,0.00,VWS V14.00,2013-09-29 08:47:00,
2013-09-29 05:02:00,55.9,53.6,30.09,NE,54,0.0,0.0,92,0.00,,OVC050,0.00,VWS V14.00,2013-09-29 09:02:00,
2013-09-29 05:17:00,56.2,53.9,30.09,NE,54,0.0,0.0,92,0.00,,OVC050,0.00,VWS V14.00,2013-09-29 09:17:00,
2013-09-29 05:32:00,56.2,53.9,30.09,NE,54,0.0,1.0,92,0.00,,OVC050,0.00,VWS V14.00,2013-09-29 09:32:00,
2013-09-29 05:47:00,56.2,53.9,30.09,NE,54,0.0,0.0,92,0.00,,OVC050,0.00,VWS V14.00,2013-09-29 09:47:00,
2013-09-29 06:02:00,56.2,53.6,30.09,NE,54,0.0,1.0,91,0.00,,OVC050,0.00,VWS V14.00,2013-09-29 10:02:00,
2013-09-29 06:17:00,56.3,53.4,30.10,NE,54,0.0,0.0,90,0.00,,OVC050,0.00,VWS V14.00,2013-09-29 10:17:00,
2013-09-29 06:32:00,56.5,53.6,30.09,NE,54,0.0,1.0,90,0.00,,OVC050,0.00,VWS V14.00,2013-09-29 10:32:00,
2013-09-29 06:47:00,56.6,53.4,30.10,NE,54,0.0,1.0,89,0.00,,OVC050,0.00,VWS V14.00,2013-09-29 10:47:00,
2013-09-29 07:02:00,56.6,53.4,30.10,NE,54,0.0,1.0,89,0.00,,OVC050,0.00,VWS V14.00,2013-09-29 11:02:00,
2013-09-29 07:17:00,56.7,53.2,30.10,NE,54,0.0,1.0,88,0.00,,OVC050,0.00,VWS V14.00,2013-09-29 11:17:00,
2013-09-29 07:32:00,56.7,53.2,30.10,NE,54,0.0,2.0,88,0.00,,OVC050,0.00,VWS V14.00,2013-09-29 11:32:00,
2013-09-29 07:47:00,56.7,53.2,30.11,ENE,59,0.0,1.0,88,0.00,,OVC050,0.00,VWS V14.00,2013-09-29 11:47:00,
2013-09-29 08:02:00,56.9,53.4,30.10,NE,54,0.0,0.0,88,0.00,,OVC050,0.00,VWS V14.00,2013-09-29 12:02:00,
2013-09-29 08:17:00,57.0,53.5,30.10,NE,54,0.0,0.0,88,0.00,,OVC050,0.00,VWS V14.00,2013-09-29 12:17:00,
2013-09-29 08:32:00,57.5,53.7,30.10,NE,54,0.0,1.0,87,0.00,,OVC050,0.00,VWS V14.00,2013-09-29 12:32:00,
2013-09-29 08:47:00,58.1,53.9,30.10,NE,54,0.0,1.0,86,0.00,,OVC050,0.00,VWS V14.00,2013-09-29 12:47:00,
2013-09-29 09:02:00,58.6,53.8,30.10,NE,54,0.0,1.0,84,0.00,,OVC050,0.00,VWS V14.00,2013-09-29 13:02:00,
2013-09-29 09:17:00,59.2,54.0,30.10,NE,54,0.0,2.0,83,0.00,,OVC050,0.00,VWS V14.00,2013-09-29 13:17:00,
2013-09-29 09:32:00,59.8,54.3,30.10,NE,54,0.0,1.0,82,0.00,,OVC050,0.00,VWS V14.00,2013-09-29 13:32:00,
2013-09-29 09:47:00,60.5,54.7,30.10,ENE,68,0.0,5.0,81,0.00,,OVC050,0.00,VWS V14.00,2013-09-29 13:47:00,
2013-09-29 10:02:00,62.9,55.2,30.09,ENE,71,0.0,3.0,76,0.00,,BKN050,0.00,VWS V14.00,2013-09-29 14:02:00,
2013-09-29 10:17:00,64.8,55.6,30.09,ENE,72,0.0,2.0,72,0.00,,BKN050,0.00,VWS V14.00,2013-09-29 14:17:00,
2013-09-29 10:32:00,66.0,55.2,30.09,ENE,72,1.0,3.0,68,0.00,,BKN050,0.00,VWS V14.00,2013-09-29 14:32:00,
2013-09-29 10:47:00,66.8,55.1,30.08,ENE,72,0.0,2.0,66,0.00,,BKN050,0.00,VWS V14.00,2013-09-29 14:47:00,
2013-09-29 11:02:00,67.8,53.4,30.08,NE,40,0.0,4.0,60,0.00,,BKN250,0.00,VWS V14.00,2013-09-29 15:02:00,
2013-09-29 11:17:00,68.8,56.1,30.08,NE,37,0.0,3.0,64,0.00,,BKN250,0.00,VWS V14.00,2013-09-29 15:17:00,
2013-09-29 11:32:00,68.4,53.1,30.07,NE,51,2.0,3.0,58,0.00,,BKN250,0.00,VWS V14.00,2013-09-29 15:32:00,
2013-09-29 11:47:00,68.8,51.5,30.07,ENE,66,0.0,4.0,54,0.00,,BKN250,0.00,VWS V14.00,2013-09-29 15:47:00,
2013-09-29 12:02:00,69.9,53.0,30.06,NNE,16,2.0,7.0,55,0.00,,BKN250,0.00,VWS V14.00,2013-09-29 16:02:00,
2013-09-29 12:17:00,69.3,53.4,30.06,ESE,107,0.0,10.0,57,0.00,,BKN250,0.00,VWS V14.00,2013-09-29 16:17:00,
2013-09-29 12:32:00,67.4,52.1,30.06,ENE,59,1.0,6.0,58,0.00,,BKN250,0.00,VWS V14.00,2013-09-29 16:32:00,
2013-09-29 12:47:00,68.4,53.5,30.05,ENE,61,0.0,3.0,59,0.00,,BKN250,0.00,VWS V14.00,2013-09-29 16:47:00,
2013-09-29 13:02:00,68.6,53.7,30.05,NE,51,0.0,6.0,59,0.00,,BKN250,0.00,VWS V14.00,2013-09-29 17:02:00,
2013-09-29 13:17:00,67.9,52.6,30.05,North,357,2.0,5.0,58,0.00,,BKN250,0.00,VWS V14.00,2013-09-29 17:17:00,
2013-09-29 13:32:00,68.4,53.5,30.04,ESE,110,0.0,8.0,59,0.00,,BKN250,0.00,VWS V14.00,2013-09-29 17:32:00,
2013-09-29 13:47:00,68.9,52.6,30.03,ENE,75,2.0,7.0,56,0.00,,BKN250,0.00,VWS V14.00,2013-09-29 17:47:00,
2013-09-29 14:02:00,68.8,53.0,30.02,SE,127,0.0,6.0,57,0.00,,BKN250,0.00,VWS V14.00,2013-09-29 18:02:00,
2013-09-29 14:17:00,68.8,52.5,30.01,East,85,0.0,5.0,56,0.00,,BKN250,0.00,VWS V14.00,2013-09-29 18:17:00,
2013-09-29 14:32:00,68.9,53.1,30.00,ESE,113,0.0,6.0,57,0.00,,BKN250,0.00,VWS V14.00,2013-09-29 18:32:00,
2013-09-29 14:47:00,68.4,51.6,30.00,East,95,0.0,5.0,55,0.00,,BKN250,0.00,VWS V14.00,2013-09-29 18:47:00,
2013-09-29 15:02:00,68.4,51.6,30.00,West,261,0.0,5.0,55,0.00,,BKN250,0.00,VWS V14.00,2013-09-29 19:02:00,
2013-09-29 15:17:00,69.1,52.3,30.00,NNE,28,1.0,7.0,55,0.00,,BKN250,0.00,VWS V14.00,2013-09-29 19:17:00,
2013-09-29 15:32:00,69.4,53.0,29.99,North,353,1.0,5.0,56,0.00,,BKN250,0.00,VWS V14.00,2013-09-29 19:32:00,
2013-09-29 15:47:00,68.3,52.5,29.99,NE,37,1.0,5.0,57,0.00,,BKN250,0.00,VWS V14.00,2013-09-29 19:47:00,
2013-09-29 16:02:00,68.1,51.8,29.99,ESE,106,0.0,6.0,56,0.00,,BKN250,0.00,VWS V14.00,2013-09-29 20:02:00,
2013-09-29 16:17:00,68.3,52.5,29.98,ESE,104,4.0,6.0,57,0.00,,BKN250,0.00,VWS V14.00,2013-09-29 20:17:00,
2013-09-29 16:32:00,67.6,50.9,29.98,East,97,2.0,5.0,55,0.00,,BKN250,0.00,VWS V14.00,2013-09-29 20:32:00,
2013-09-29 16:47:00,68.3,51.0,29.98,NE,44,1.0,4.0,54,0.00,,BKN250,0.00,VWS V14.00,2013-09-29 20:47:00,
2013-09-29 17:02:00,68.6,50.8,29.98,NNW,340,0.0,9.0,53,0.00,,BKN250,0.00,VWS V14.00,2013-09-29 21:02:00,
2013-09-29 17:17:00,67.3,50.1,29.98,North,356,0.0,2.0,54,0.00,,BKN250,0.00,VWS V14.00,2013-09-29 21:17:00,
2013-09-29 17:32:00,67.4,49.7,29.98,NNE,14,0.0,3.0,53,0.00,,BKN250,0.00,VWS V14.00,2013-09-29 21:32:00,
2013-09-29 17:47:00,67.3,50.1,29.99,East,90,0.0,6.0,54,0.00,,BKN250,0.00,VWS V14.00,2013-09-29 21:47:00,
2013-09-29 18:02:00,66.9,50.7,30.00,NNW,336,0.0,3.0,56,0.00,,SCT250,0.00,VWS V14.00,2013-09-29 22:02:00,
2013-09-29 18:17:00,66.4,51.2,30.00,North,0,0.0,1.0,58,0.00,,SCT250,0.00,VWS V14.00,2013-09-29 22:17:00,
2013-09-29 18:32:00,65.6,51.8,30.00,North,0,0.0,0.0,61,0.00,,SCT250,0.00,VWS V14.00,2013-09-29 22:32:00,
2013-09-29 18:47:00,64.3,52.3,30.00,North,0,0.0,0.0,65,0.00,,SCT250,0.00,VWS V14.00,2013-09-29 22:47:00,
2013-09-29 19:02:00,62.7,52.4,30.00,North,0,0.0,0.0,69,0.00,,SCT250,0.00,VWS V14.00,2013-09-29 23:02:00,
2013-09-29 19:17:00,61.3,52.6,30.00,North,0,0.0,0.0,73,0.00,,SCT250,0.00,VWS V14.00,2013-09-29 23:17:00,
2013-09-29 19:32:00,60.1,51.8,30.00,North,0,0.0,0.0,74,0.00,,SCT250,0.00,VWS V14.00,2013-09-29 23:32:00,
2013-09-29 19:47:00,59.2,51.7,30.00,North,0,0.0,0.0,76,0.00,,SCT250,0.00,VWS V14.00,2013-09-29 23:47:00,
2013-09-29 20:02:00,58.1,51.3,30.00,North,0,0.0,0.0,78,0.00,,SCT250,0.00,VWS V14.00,2013-09-30 00:02:00,
2013-09-29 20:17:00,57.5,51.4,30.00,North,0,0.0,0.0,80,0.00,,SCT250,0.00,VWS V14.00,2013-09-30 00:17:00,
2013-09-29 20:32:00,56.9,51.5,30.00,North,0,0.0,0.0,82,0.00,,FEW250,0.00,VWS V14.00,2013-09-30 00:32:00,
2013-09-29 20:47:00,56.3,50.9,30.00,North,0,0.0,0.0,82,0.00,,FEW250,0.00,VWS V14.00,2013-09-30 00:47:00,
2013-09-29 21:02:00,55.7,51.0,30.00,North,0,0.0,0.0,84,0.00,,FEW250,0.00,VWS V14.00,2013-09-30 01:02:00,
2013-09-29 21:17:00,55.3,50.9,30.00,North,0,0.0,0.0,85,0.00,,FEW250,0.00,VWS V14.00,2013-09-30 01:17:00,
2013-09-29 21:32:00,54.7,50.6,30.00,North,0,0.0,0.0,86,0.00,,FEW250,0.00,VWS V14.00,2013-09-30 01:32:00,
2013-09-29 21:47:00,54.8,51.0,30.00,North,0,0.0,0.0,87,0.00,,FEW250,0.00,VWS V14.00,2013-09-30 01:47:00,
2013-09-29 22:02:00,54.5,51.0,29.99,North,0,0.0,0.0,88,0.00,,CLR,0.00,VWS V14.00,2013-09-30 02:02:00,
2013-09-29 22:17:00,54.4,50.9,29.99,North,0,0.0,0.0,88,0.00,,CLR,0.00,VWS V14.00,2013-09-30 02:17:00,
2013-09-29 22:32:00,54.1,50.9,29.99,North,0,0.0,0.0,89,0.00,,CLR,0.00,VWS V14.00,2013-09-30 02:32:00,
2013-09-29 22:47:00,53.8,50.6,29.99,North,0,0.0,0.0,89,0.00,,CLR,0.00,VWS V14.00,2013-09-30 02:47:00,
2013-09-29 23:02:00,53.6,50.4,29.99,North,0,0.0,0.0,89,0.00,,CLR,0.00,VWS V14.00,2013-09-30 03:02:00,
2013-09-29 23:17:00,53.2,50.3,29.99,North,0,0.0,0.0,90,0.00,,CLR,0.00,VWS V14.00,2013-09-30 03:17:00,
2013-09-29 23:32:00,53.1,50.2,29.99,North,0,0.0,0.0,90,0.00,,CLR,0.00,VWS V14.00,2013-09-30 03:32:00,
2013-09-29 23:47:00,52.6,49.8,29.98,North,0,0.0,0.0,90,0.00,,CLR,0.00,VWS V14.00,2013-09-30 03:47:00,